createdAt,value
2022-10-12T00:02:19.282Z,10.85
2022-10-12T00:04:42.636Z,10.35
2022-10-12T00:07:05.904Z,10.30
2022-10-12T00:09:29.140Z,10.68
2022-10-12T00:11:52.410Z,11.05
2022-10-12T00:14:15.684Z,11.32
2022-10-12T00:16:39.115Z,11.25
2022-10-12T00:19:04.122Z,10.10
2022-10-12T00:21:29.571Z,10.55
2022-10-12T00:23:53.118Z,10.65
2022-10-12T00:26:24.343Z,11.20
2022-10-12T00:28:48.619Z,10.35
2022-10-12T00:31:15.044Z,10.68
2022-10-12T00:33:39.114Z,10.23
2022-10-12T00:36:14.069Z,11.13
2022-10-12T00:38:37.337Z,11.55
2022-10-12T00:41:00.544Z,11.00
2022-10-12T00:43:30.030Z,10.15
2022-10-12T00:45:53.347Z,10.73
2022-10-12T00:48:16.921Z,10.43
2022-10-12T00:50:40.329Z,10.20
2022-10-12T00:53:11.489Z,10.30
2022-10-12T00:55:41.652Z,9.82
2022-10-12T00:58:06.477Z,9.95
2022-10-12T01:00:29.958Z,10.90
2022-10-12T01:02:55.245Z,10.90
2022-10-12T01:05:19.673Z,10.73
2022-10-12T01:07:42.969Z,9.88
2022-10-12T01:10:09.021Z,10.05
2022-10-12T01:12:33.472Z,11.40
2022-10-12T01:14:56.795Z,9.48
2022-10-12T01:17:34.048Z,9.85
2022-10-12T01:20:42.011Z,9.43
2022-10-12T01:23:43.657Z,9.95
2022-10-12T01:26:51.834Z,10.07
2022-10-12T01:29:48.149Z,9.95
2022-10-12T01:32:20.192Z,9.20
2022-10-12T01:34:48.491Z,9.93
2022-10-12T01:37:21.751Z,9.25
2022-10-12T01:39:51.128Z,9.38
2022-10-12T01:42:21.414Z,10.38
2022-10-12T01:44:44.724Z,8.88
2022-10-12T01:47:07.970Z,10.27
2022-10-12T01:49:35.888Z,9.65
2022-10-12T01:52:26.489Z,9.52
2022-10-12T01:55:26.139Z,9.77
2022-10-12T01:58:06.503Z,9.52
2022-10-12T02:00:31.802Z,9.50
2022-10-12T02:03:03.028Z,8.82
2022-10-12T02:05:36.530Z,9.95
2022-10-12T02:08:09.204Z,9.50
2022-10-12T02:10:40.879Z,9.25
2022-10-12T02:13:08.768Z,9.60
2022-10-12T02:15:34.477Z,10.05
2022-10-12T02:17:59.581Z,8.70
2022-10-12T02:20:25.054Z,9.98
2022-10-12T02:22:51.624Z,9.45
2022-10-12T02:25:18.237Z,9.32
2022-10-12T02:27:47.164Z,9.50
2022-10-12T02:30:12.218Z,8.95
2022-10-12T02:32:40.884Z,9.52
2022-10-12T02:35:10.062Z,8.77
2022-10-12T02:37:38.093Z,9.27
2022-10-12T02:40:12.369Z,9.13
2022-10-12T02:43:08.857Z,9.60
2022-10-12T02:45:27.031Z,8.15
2022-10-12T02:47:53.903Z,9.05
2022-10-12T02:50:18.397Z,8.65
2022-10-12T02:52:42.064Z,9.07
2022-10-12T02:55:08.024Z,8.95
2022-10-12T02:57:31.259Z,9.23
2022-10-12T02:59:54.610Z,9.48
2022-10-12T03:02:17.852Z,10.00
2022-10-12T03:04:41.140Z,9.25
2022-10-12T03:07:05.023Z,10.00
2022-10-12T03:09:28.253Z,9.95
2022-10-12T03:11:52.887Z,9.98
2022-10-12T03:14:17.456Z,10.43
2022-10-12T03:16:40.774Z,11.30
2022-10-12T03:19:04.124Z,10.77
2022-10-12T03:21:27.406Z,12.68
2022-10-12T03:23:50.680Z,11.55
2022-10-12T03:26:14.324Z,11.82
2022-10-12T03:28:39.046Z,12.02
2022-10-12T03:31:03.650Z,11.85
2022-10-12T03:33:27.260Z,10.95
2022-10-12T03:35:50.689Z,11.32
2022-10-12T03:38:14.321Z,10.82
2022-10-12T03:40:37.557Z,11.50
2022-10-12T03:43:00.929Z,10.85
2022-10-12T03:45:25.635Z,10.95
2022-10-12T03:47:49.068Z,10.18
2022-10-12T03:50:12.652Z,10.25
2022-10-12T03:52:35.953Z,10.50
2022-10-12T03:54:59.247Z,10.38
2022-10-12T03:57:22.533Z,10.38
2022-10-12T03:59:45.840Z,9.90
2022-10-12T04:02:15.826Z,9.80
2022-10-12T04:04:40.060Z,11.15
2022-10-12T04:07:03.282Z,10.07
2022-10-12T04:09:26.803Z,10.30
2022-10-12T04:11:50.031Z,10.00
2022-10-12T04:14:13.605Z,9.68
2022-10-12T04:16:36.920Z,9.73
2022-10-12T04:19:01.537Z,10.23
2022-10-12T04:21:26.122Z,10.57
2022-10-12T04:23:49.460Z,8.27
2022-10-12T04:26:12.759Z,8.90
2022-10-12T04:28:36.799Z,10.00
2022-10-12T04:31:00.156Z,8.85
2022-10-12T04:33:23.424Z,10.52
2022-10-12T04:35:48.204Z,10.15
2022-10-12T04:38:13.081Z,10.13
2022-10-12T04:40:36.393Z,9.57
2022-10-12T04:42:59.686Z,10.07
2022-10-12T04:45:23.345Z,10.20
2022-10-12T04:47:46.678Z,9.25
2022-10-12T04:50:10.357Z,9.07
2022-10-12T04:52:35.025Z,9.25
2022-10-12T04:54:59.130Z,10.45
2022-10-12T04:57:22.356Z,9.57
2022-10-12T04:59:45.940Z,10.75
2022-10-12T05:02:09.206Z,10.05
2022-10-12T05:04:32.489Z,9.80
2022-10-12T05:06:55.790Z,10.82
2022-10-12T05:09:20.574Z,10.73
2022-10-12T05:11:43.939Z,9.65
2022-10-12T05:14:07.327Z,10.98
2022-10-12T05:16:30.740Z,11.27
2022-10-12T05:18:54.053Z,10.90
2022-10-12T05:21:17.505Z,10.90
2022-10-12T05:23:40.714Z,10.90
2022-10-12T05:26:05.915Z,10.43
2022-10-12T05:28:29.403Z,11.85
2022-10-12T05:30:53.916Z,11.75
2022-10-12T05:33:17.247Z,13.50
2022-10-12T05:35:45.242Z,13.57
2022-10-12T05:38:10.688Z,14.52
2022-10-12T05:40:33.980Z,15.65
2022-10-12T05:42:58.575Z,15.75
2022-10-12T05:45:21.834Z,15.43
2022-10-12T05:47:45.059Z,14.63
2022-10-12T05:50:09.909Z,14.30
2022-10-12T05:52:33.207Z,15.38
2022-10-12T05:54:57.071Z,15.35
2022-10-12T05:57:20.350Z,15.18
2022-10-12T05:59:45.000Z,15.82
2022-10-12T06:02:08.496Z,15.75
2022-10-12T06:04:31.826Z,16.52
2022-10-12T06:06:55.507Z,15.10
2022-10-12T06:09:19.093Z,15.32
2022-10-12T06:11:42.510Z,16.30
2022-10-12T06:14:06.018Z,16.25
2022-10-12T06:16:30.680Z,16.85
2022-10-12T06:18:54.576Z,15.60
2022-10-12T06:21:32.947Z,16.23
2022-10-12T06:23:57.494Z,17.13
2022-10-12T06:26:20.916Z,16.73
2022-10-12T06:28:44.393Z,16.52
2022-10-12T06:31:07.917Z,17.48
2022-10-12T06:33:32.655Z,17.02
2022-10-12T06:35:56.036Z,18.52
2022-10-12T06:38:19.530Z,18.55
2022-10-12T06:40:42.848Z,18.25
2022-10-12T06:43:06.163Z,18.15
2022-10-12T06:45:29.603Z,17.00
2022-10-12T06:47:53.017Z,17.17
2022-10-12T06:50:17.806Z,17.48
2022-10-12T06:52:41.307Z,16.40
2022-10-12T06:55:05.375Z,15.85
2022-10-12T06:57:28.884Z,14.95
2022-10-12T06:59:52.145Z,16.65
2022-10-12T07:02:15.545Z,22.83
2022-10-12T07:04:38.875Z,22.13
2022-10-12T07:07:03.935Z,24.55
2022-10-12T07:09:27.218Z,26.95
2022-10-12T07:11:50.415Z,30.83
2022-10-12T07:14:13.689Z,29.40
2022-10-12T07:16:36.932Z,29.95
2022-10-12T07:19:00.217Z,24.55
2022-10-12T07:21:23.528Z,24.42
2022-10-12T07:23:48.155Z,21.63
2022-10-12T07:26:11.936Z,20.45
2022-10-12T07:28:35.754Z,20.50
2022-10-12T07:31:03.150Z,20.83
2022-10-12T07:33:26.469Z,21.17
2022-10-12T07:36:13.280Z,19.75
2022-10-12T07:38:37.461Z,18.40
2022-10-12T07:41:03.984Z,17.23
2022-10-12T07:43:27.363Z,15.75
2022-10-12T07:45:50.568Z,16.05
2022-10-12T07:48:13.910Z,14.30
2022-10-12T07:50:37.513Z,13.32
2022-10-12T07:53:00.765Z,12.90
2022-10-12T07:55:24.092Z,11.80
2022-10-12T07:57:48.962Z,10.85
2022-10-12T08:00:13.446Z,10.80
2022-10-12T08:02:37.392Z,10.82
2022-10-12T08:05:00.689Z,9.00
2022-10-12T08:07:24.006Z,9.55
2022-10-12T08:09:49.476Z,8.95
2022-10-12T08:12:12.799Z,9.05
2022-10-12T08:14:37.461Z,8.48
2022-10-12T08:17:00.760Z,9.15
2022-10-12T08:19:24.079Z,8.45
2022-10-12T08:21:47.735Z,8.68
2022-10-12T08:24:11.617Z,8.30
2022-10-12T08:26:34.851Z,8.35
2022-10-12T08:28:58.223Z,9.20
2022-10-12T08:31:22.950Z,8.50
2022-10-12T08:33:46.478Z,7.90
2022-10-12T08:36:12.004Z,7.05
2022-10-12T08:38:36.622Z,7.90
2022-10-12T08:41:13.023Z,7.18
2022-10-12T08:43:52.943Z,7.60
2022-10-12T08:46:22.175Z,7.40
2022-10-12T08:48:49.242Z,6.18
2022-10-12T08:51:17.690Z,6.03
2022-10-12T08:53:49.179Z,6.65
2022-10-12T08:56:12.525Z,6.40
2022-10-12T08:58:39.215Z,5.75
2022-10-12T09:01:16.796Z,5.45
2022-10-12T09:03:58.546Z,5.50
2022-10-12T09:06:25.625Z,5.20
2022-10-12T09:09:09.850Z,5.55
2022-10-12T09:11:54.180Z,4.97
2022-10-12T09:14:23.353Z,5.40
2022-10-12T09:16:49.835Z,5.43
2022-10-12T09:19:21.214Z,5.32
2022-10-12T09:21:48.424Z,5.97
2022-10-12T09:24:18.399Z,5.60
2022-10-12T09:26:41.857Z,5.57
2022-10-12T09:29:25.065Z,5.35
2022-10-12T09:32:20.243Z,5.85
2022-10-12T09:34:46.230Z,5.55
2022-10-12T09:37:20.200Z,5.93
2022-10-12T09:39:43.497Z,5.93
2022-10-12T09:42:06.992Z,6.55
2022-10-12T09:44:36.217Z,7.60
2022-10-12T09:47:02.363Z,8.27
2022-10-12T09:49:41.753Z,7.65
2022-10-12T09:52:06.528Z,8.02
2022-10-12T09:54:29.854Z,8.77
2022-10-12T09:56:55.334Z,9.70
2022-10-12T09:59:29.442Z,9.48
2022-10-12T10:02:01.031Z,9.18
2022-10-12T10:04:26.749Z,8.27
2022-10-12T10:06:51.110Z,8.40
2022-10-12T10:09:32.934Z,8.27
2022-10-12T10:11:57.099Z,7.88
2022-10-12T10:14:20.791Z,7.40
2022-10-12T10:16:50.421Z,6.70
2022-10-12T10:19:20.018Z,8.50
2022-10-12T10:21:43.489Z,7.68
2022-10-12T10:24:10.156Z,6.63
2022-10-12T10:26:55.715Z,6.55
2022-10-12T10:29:36.570Z,6.18
2022-10-12T10:32:24.253Z,6.90
2022-10-12T10:34:47.900Z,6.95
2022-10-12T10:37:21.000Z,6.93
2022-10-12T10:39:48.988Z,6.57
2022-10-12T10:42:19.440Z,5.40
2022-10-12T10:44:50.962Z,5.70
2022-10-12T10:47:14.971Z,5.03
2022-10-12T10:49:45.627Z,4.90
2022-10-12T10:52:23.930Z,4.75
2022-10-12T10:54:49.600Z,4.75
2022-10-12T10:57:19.492Z,4.65
2022-10-12T10:59:49.831Z,5.13
2022-10-12T11:02:32.841Z,5.03
2022-10-12T11:05:05.883Z,4.60
2022-10-12T11:07:36.686Z,5.05
2022-10-12T11:10:05.078Z,4.68
2022-10-12T11:12:33.366Z,4.78
2022-10-12T11:15:02.508Z,5.25
2022-10-12T11:17:31.563Z,5.00
2022-10-12T11:20:07.465Z,5.53
2022-10-12T11:22:40.182Z,5.15
2022-10-12T11:25:11.114Z,5.13
2022-10-12T11:27:39.420Z,4.82
2022-10-12T11:30:09.953Z,5.07
2022-10-12T11:32:37.434Z,4.65
2022-10-12T11:35:04.452Z,5.15
2022-10-12T11:37:39.270Z,5.20
2022-10-12T11:40:07.487Z,5.68
2022-10-12T11:42:42.412Z,5.00
2022-10-12T11:45:20.152Z,5.97
2022-10-12T11:47:47.385Z,4.82
2022-10-12T11:50:28.455Z,5.43
2022-10-12T11:52:54.865Z,5.78
2022-10-12T11:55:34.595Z,5.85
2022-10-12T11:58:10.719Z,5.53
2022-10-12T12:00:56.712Z,6.03
2022-10-12T12:03:29.579Z,6.20
2022-10-12T12:05:52.966Z,6.00
2022-10-12T12:08:24.050Z,6.10
2022-10-12T12:11:05.324Z,5.57
2022-10-12T12:13:30.236Z,6.05
2022-10-12T12:16:34.314Z,5.60
2022-10-12T12:19:37.835Z,5.78
2022-10-12T12:22:24.181Z,5.70
2022-10-12T12:25:06.861Z,5.00
2022-10-12T12:27:35.496Z,5.03
2022-10-12T12:30:02.528Z,3.78
2022-10-12T12:32:27.949Z,4.38
2022-10-12T12:35:00.217Z,4.82
2022-10-12T12:37:28.006Z,4.65
2022-10-12T12:39:57.097Z,3.58
2022-10-12T12:42:25.261Z,4.25
2022-10-12T12:44:48.729Z,3.30
2022-10-12T12:47:46.708Z,3.53
2022-10-12T12:50:35.502Z,3.60
2022-10-12T12:53:07.206Z,2.75
2022-10-12T12:55:55.053Z,3.17
2022-10-12T12:59:02.473Z,3.45
2022-10-12T13:01:48.158Z,3.05
2022-10-12T13:04:33.401Z,3.50
2022-10-12T13:07:43.210Z,3.00
2022-10-12T13:10:24.867Z,3.60
2022-10-12T13:13:10.891Z,3.15
2022-10-12T13:16:19.540Z,3.53
2022-10-12T13:19:00.670Z,4.00
2022-10-12T13:21:28.360Z,3.22
2022-10-12T13:23:59.514Z,3.50
2022-10-12T13:26:27.321Z,3.80
2022-10-12T13:28:52.070Z,3.67
2022-10-12T13:31:21.483Z,3.55
2022-10-12T13:33:51.942Z,4.05
2022-10-12T13:36:25.043Z,3.88
2022-10-12T13:38:48.324Z,4.10
2022-10-12T13:41:14.407Z,4.15
2022-10-12T13:43:45.914Z,3.83
2022-10-12T13:46:12.314Z,4.03
2022-10-12T13:49:00.562Z,4.13
2022-10-12T13:51:29.593Z,3.65
2022-10-12T13:53:52.852Z,3.80
2022-10-12T13:56:20.269Z,3.92
2022-10-12T13:58:44.011Z,4.03
2022-10-12T14:01:07.642Z,3.65
2022-10-12T14:03:38.862Z,4.03
2022-10-12T14:06:04.457Z,3.85
2022-10-12T14:08:30.599Z,4.65
2022-10-12T14:10:54.888Z,4.43
2022-10-12T14:13:26.656Z,4.53
2022-10-12T14:15:50.472Z,4.15
2022-10-12T14:18:39.871Z,4.28
2022-10-12T14:21:14.324Z,4.68
2022-10-12T14:23:47.624Z,4.90
2022-10-12T14:26:26.738Z,4.82
2022-10-12T14:28:50.539Z,4.93
2022-10-12T14:31:13.806Z,4.85
2022-10-12T14:33:37.217Z,5.03
2022-10-12T14:36:15.450Z,5.25
2022-10-12T14:38:44.151Z,5.07
2022-10-12T14:41:39.334Z,5.05
2022-10-12T14:44:13.881Z,4.60
2022-10-12T14:46:37.622Z,4.53
2022-10-12T14:49:00.847Z,5.20
2022-10-12T14:51:24.088Z,5.30
2022-10-12T14:54:00.031Z,4.82
2022-10-12T14:56:23.683Z,4.80
2022-10-12T14:58:46.962Z,5.13
2022-10-12T15:01:11.018Z,5.03
2022-10-12T15:03:34.528Z,5.55
2022-10-12T15:05:57.779Z,5.47
2022-10-12T15:08:21.106Z,5.28
2022-10-12T15:10:46.997Z,6.30
2022-10-12T15:13:13.612Z,5.50
2022-10-12T15:15:42.394Z,5.13
2022-10-12T15:18:06.680Z,5.38
2022-10-12T15:20:31.818Z,5.32
2022-10-12T15:22:55.046Z,4.80
2022-10-12T15:25:23.456Z,5.40
2022-10-12T15:27:48.267Z,4.93
2022-10-12T15:30:14.008Z,4.85
2022-10-12T15:32:37.386Z,4.30
2022-10-12T15:35:00.740Z,4.15
2022-10-12T15:37:27.759Z,4.80
2022-10-12T15:39:51.320Z,4.68
2022-10-12T15:42:14.749Z,4.28
2022-10-12T15:44:42.684Z,4.47
2022-10-12T15:47:06.040Z,4.90
2022-10-12T15:49:29.336Z,4.15
2022-10-12T15:51:54.789Z,4.20
2022-10-12T15:54:18.558Z,4.43
2022-10-12T15:56:42.119Z,4.80
2022-10-12T15:59:05.750Z,3.80
2022-10-12T16:01:30.770Z,4.30
2022-10-12T16:03:54.069Z,4.07
2022-10-12T16:06:17.814Z,4.80
2022-10-12T16:08:41.355Z,4.30
2022-10-12T16:11:05.648Z,4.47
2022-10-12T16:13:28.900Z,4.90
2022-10-12T16:15:52.117Z,4.35
2022-10-12T16:18:17.561Z,4.03
2022-10-12T16:20:42.050Z,4.63
2022-10-12T16:23:08.289Z,4.43
2022-10-12T16:25:31.655Z,4.32
2022-10-12T16:27:57.408Z,4.68
2022-10-12T16:30:21.603Z,4.82
2022-10-12T16:32:44.934Z,4.65
2022-10-12T16:35:11.286Z,5.13
2022-10-12T16:37:35.815Z,5.35
2022-10-12T16:39:59.099Z,4.95
2022-10-12T16:42:22.849Z,4.47
2022-10-12T16:44:46.683Z,4.72
2022-10-12T16:47:09.983Z,5.00
2022-10-12T16:49:33.274Z,5.43
2022-10-12T16:51:57.937Z,5.80
2022-10-12T16:54:21.776Z,4.88
2022-10-12T16:56:44.993Z,5.50
2022-10-12T16:59:08.239Z,5.95
2022-10-12T17:01:31.605Z,5.70
2022-10-12T17:03:55.087Z,5.82
2022-10-12T17:06:18.346Z,6.25
2022-10-12T17:08:42.915Z,5.25
2022-10-12T17:11:08.258Z,5.50
2022-10-12T17:13:32.827Z,5.30
2022-10-12T17:15:59.367Z,6.05
2022-10-12T17:18:22.727Z,6.40
2022-10-12T17:20:48.240Z,6.50
2022-10-12T17:23:14.023Z,6.07
2022-10-12T17:25:38.645Z,6.50
2022-10-12T17:28:01.879Z,7.60
2022-10-12T17:30:25.298Z,7.43
2022-10-12T17:32:48.933Z,7.30
2022-10-12T17:35:12.307Z,7.78
2022-10-12T17:37:35.562Z,7.03
2022-10-12T17:39:59.683Z,7.53
2022-10-12T17:42:25.552Z,7.15
2022-10-12T17:44:48.925Z,7.40
2022-10-12T17:47:12.205Z,7.40
2022-10-12T17:49:35.511Z,7.10
2022-10-12T17:51:58.844Z,7.38
2022-10-12T17:54:23.425Z,8.13
2022-10-12T17:56:46.881Z,8.75
2022-10-12T17:59:17.320Z,10.60
2022-10-12T18:01:40.961Z,8.77
2022-10-12T18:04:05.383Z,9.18
2022-10-12T18:06:29.919Z,8.68
2022-10-12T18:08:53.645Z,9.55
2022-10-12T18:11:21.204Z,9.73
2022-10-12T18:13:48.202Z,12.80
2022-10-12T18:16:13.166Z,13.52
2022-10-12T18:18:36.414Z,12.85
2022-10-12T18:20:59.620Z,12.23
2022-10-12T18:23:23.009Z,10.82
2022-10-12T18:25:47.466Z,10.85
2022-10-12T18:28:12.869Z,11.40
2022-10-12T18:30:37.147Z,11.63
2022-10-12T18:33:01.790Z,12.07
2022-10-12T18:35:27.934Z,14.13
2022-10-12T18:37:51.297Z,13.40
2022-10-12T18:40:14.525Z,13.63
2022-10-12T18:42:37.844Z,13.27
2022-10-12T18:45:01.165Z,11.98
2022-10-12T18:47:24.711Z,12.18
2022-10-12T18:49:51.459Z,12.10
2022-10-12T18:52:14.715Z,11.00
2022-10-12T18:54:38.805Z,10.68
2022-10-12T18:57:02.478Z,10.85
2022-10-12T18:59:25.716Z,11.05
2022-10-12T19:01:49.682Z,10.57
2022-10-12T19:04:13.706Z,10.82
2022-10-12T19:06:42.330Z,11.68
2022-10-12T19:09:06.348Z,10.52
2022-10-12T19:11:31.085Z,10.98
2022-10-12T19:13:57.047Z,11.30
2022-10-12T19:16:20.712Z,12.20
2022-10-12T19:18:44.814Z,10.63
2022-10-12T19:21:10.364Z,12.93
2022-10-12T19:23:35.082Z,15.45
2022-10-12T19:25:58.293Z,13.57
2022-10-12T19:28:22.040Z,14.85
2022-10-12T19:30:45.449Z,14.52
2022-10-12T19:33:08.741Z,15.02
2022-10-12T19:35:32.124Z,16.15
2022-10-12T19:37:55.353Z,15.98
2022-10-12T19:40:20.399Z,15.40
2022-10-12T19:42:43.901Z,15.02
2022-10-12T19:45:09.042Z,17.38
2022-10-12T19:47:32.289Z,20.17
2022-10-12T19:49:55.664Z,18.38
2022-10-12T19:52:19.297Z,18.08
2022-10-12T19:54:42.742Z,17.10
2022-10-12T19:57:07.322Z,17.25
2022-10-12T19:59:30.776Z,15.90
2022-10-12T20:01:54.074Z,15.80
2022-10-12T20:04:17.544Z,16.05
2022-10-12T20:06:41.082Z,15.95
2022-10-12T20:09:05.464Z,16.02
2022-10-12T20:11:29.412Z,15.82
2022-10-12T20:13:54.679Z,16.02
2022-10-12T20:16:20.617Z,15.43
2022-10-12T20:18:44.017Z,16.65
2022-10-12T20:21:08.192Z,16.27
2022-10-12T20:23:34.972Z,14.13
2022-10-12T20:25:58.285Z,15.75
2022-10-12T20:28:22.694Z,16.00
2022-10-12T20:30:48.219Z,14.43
2022-10-12T20:33:11.844Z,15.23
2022-10-12T20:35:35.773Z,14.57
2022-10-12T20:37:59.271Z,14.57
2022-10-12T20:40:22.864Z,14.20
2022-10-12T20:42:46.358Z,15.02
2022-10-12T20:45:14.081Z,15.68
2022-10-12T20:47:38.750Z,14.63
2022-10-12T20:50:02.232Z,14.27
2022-10-12T20:52:25.451Z,14.13
2022-10-12T20:54:51.719Z,14.23
2022-10-12T20:57:14.957Z,14.55
2022-10-12T20:59:38.434Z,13.60
2022-10-12T21:02:01.873Z,12.90
2022-10-12T21:04:27.406Z,14.00
2022-10-12T21:06:51.117Z,14.27
2022-10-12T21:09:15.864Z,13.02
2022-10-12T21:11:39.470Z,14.05
2022-10-12T21:14:02.709Z,13.57
2022-10-12T21:16:27.012Z,14.25
2022-10-12T21:18:50.310Z,14.85
2022-10-12T21:21:17.128Z,14.13
2022-10-12T21:23:41.307Z,13.80
2022-10-12T21:26:11.700Z,12.73
2022-10-12T21:28:35.039Z,13.02
2022-10-12T21:31:00.004Z,12.98
2022-10-12T21:33:23.387Z,12.52
2022-10-12T21:35:46.664Z,13.25
2022-10-12T21:38:11.818Z,14.55
2022-10-12T21:40:35.969Z,15.20
2022-10-12T21:42:59.275Z,12.68
2022-10-12T21:45:22.503Z,12.55
2022-10-12T21:47:46.140Z,13.90
2022-10-12T21:50:10.501Z,12.45
2022-10-12T21:52:33.696Z,12.73
2022-10-12T21:54:58.280Z,13.55
2022-10-12T21:57:21.576Z,11.80
2022-10-12T21:59:45.158Z,12.65
2022-10-12T22:02:08.468Z,11.45
2022-10-12T22:04:33.537Z,11.95
2022-10-12T22:07:00.423Z,11.90
2022-10-12T22:09:23.988Z,11.55
2022-10-12T22:11:49.679Z,11.07
2022-10-12T22:14:15.933Z,11.98
2022-10-12T22:16:39.577Z,12.57
2022-10-12T22:19:05.561Z,11.63
2022-10-12T22:21:31.430Z,12.35
2022-10-12T22:23:54.923Z,11.48
2022-10-12T22:26:21.360Z,11.80
2022-10-12T22:28:51.125Z,11.45
2022-10-12T22:31:16.934Z,12.15
2022-10-12T22:33:40.596Z,11.77
2022-10-12T22:36:05.698Z,10.75
2022-10-12T22:38:30.091Z,11.57
2022-10-12T22:41:01.860Z,11.77
2022-10-12T22:43:25.452Z,10.00
2022-10-12T22:45:50.107Z,9.95
2022-10-12T22:48:13.350Z,10.85
2022-10-12T22:50:36.587Z,11.98
2022-10-12T22:52:59.825Z,10.43
2022-10-12T22:55:23.217Z,11.73
2022-10-12T22:57:46.856Z,11.40
2022-10-12T23:00:11.673Z,11.13
2022-10-12T23:02:36.251Z,10.35
2022-10-12T23:04:59.546Z,10.48
2022-10-12T23:07:22.771Z,11.25
2022-10-12T23:09:45.984Z,10.93
2022-10-12T23:12:09.412Z,11.82
2022-10-12T23:14:32.787Z,12.43
2022-10-12T23:16:56.044Z,12.88
2022-10-12T23:19:21.535Z,11.75
2022-10-12T23:21:44.959Z,11.38
2022-10-12T23:24:08.567Z,11.52
2022-10-12T23:26:31.962Z,13.18
2022-10-12T23:28:56.020Z,12.45
2022-10-12T23:31:21.966Z,11.98
2022-10-12T23:33:47.367Z,11.80
2022-10-12T23:36:14.465Z,12.38
2022-10-12T23:38:39.909Z,11.63
2022-10-12T23:41:03.472Z,12.63
2022-10-12T23:43:27.750Z,12.88
2022-10-12T23:45:51.586Z,12.68
2022-10-12T23:48:15.146Z,12.35
2022-10-12T23:50:42.989Z,12.35
2022-10-12T23:53:08.935Z,12.93
2022-10-12T23:55:33.138Z,12.82
2022-10-12T23:57:56.387Z,13.43
